CheckWX is a tool to help pilots better visualize weather data.  It is not intended as a substitute for an official pre-flight weather briefing.

20:26:35 UTC

DNKA TAF
Kaduna Airport
Kaduna, Nigeria
TAF DNKA 250940Z 2512/2618 23010KT 9999 BKN010 TEMPO 2516/2522 TS SCT013 FEW020CB PROB30 TEMPO 2522/2604 08025G35KT 5000 -TSRA BKN008 FEW018CB BECMG 2604/2606 13005KT FEW008

Jun-25@
12:00 UTC

Jun-25 @ 12:00 UTC

Jun-26@
04:00 UTC

Jun-26 @ 04:00 UTC

TAF DNKA 250940Z 2512/2618 23010KT 9999 BKN010
Wind
  • 230° at 10 KTS
Cloud Levels
  • Broken at 1,000' AGL

Jun-25@
16:00 UTC

Jun-25 @ 16:00 UTC

Jun-25@
22:00 UTC

Jun-25 @ 22:00 UTC

TEMPO 2516/2522 TS SCT013 FEW020CB

Temporary

Temporary Changes expected for less than half the time period

Conditions
Thunderstorm
Cloud Levels
  • Scattered at 1,300' AGL
  • Few at 2,000' AGL

Jun-25@
22:00 UTC

Jun-25 @ 22:00 UTC

Jun-26@
04:00 UTC

Jun-26 @ 04:00 UTC

PROB30 TEMPO 2522/2604 08025G35KT 5000 -TSRA BKN008 FEW018CB

Temporary - 30% Likelihood

Temporary - 30% Likelihood during this time.

Wind
  • 080° at 25 KTS
  • {Gusting to 35 KTS
Conditions
Light Thunderstorm, Light Rain
Cloud Levels
  • Broken at 800' AGL
  • Few at 1,800' AGL

Jun-26@
04:00 UTC

Jun-26 @ 04:00 UTC

Jun-26@
18:00 UTC

Jun-26 @ 18:00 UTC

BECMG 2604/2606 13005KT FEW008

Becoming

Becoming Conditions expected by Wed, Jun 26, 2019 @ 06:00 UTC

Wind
  • 130° at 5 KTS
Cloud Levels
  • Few at 800' AGL